Time;durP1;ratioP1;P1;durP2;ratioP2;P2;SDS_P1;SDS_P2;PMS_P1;PMS_P2;Temp;Humidity;BMP_temperature;BMP_pressure;BME280_temperature;BME280_humidity;BME280_pressure;Samples;Min_cycle;Max_cycle;Signal;HPM_P1;HPM_P2
2023/09/11 00:00:44;;;;;;;15.97;7.93;;;22.90;99.90;;;;;;7279514;19;20197;-75
2023/09/11 00:03:10;;;;;;;14.97;7.23;;;23.00;99.90;;;;;;7299044;19;20188;-75
2023/09/11 00:05:38;;;;;;;15.23;7.25;;;23.10;99.90;;;;;;7293070;19;20191;-83
2023/09/11 00:08:04;;;;;;;17.27;8.00;;;23.10;99.90;;;;;;7286869;19;20180;-83
2023/09/11 00:10:32;;;;;;;14.97;7.27;;;23.10;99.90;;;;;;7285464;19;20229;-83
2023/09/11 00:12:59;;;;;;;18.17;7.50;;;23.00;99.90;;;;;;7285308;19;20200;-83
2023/09/11 00:15:25;;;;;;;14.90;7.70;;;23.10;99.90;;;;;;7285918;19;20196;-83
2023/09/11 00:17:51;;;;;;;17.97;7.80;;;23.20;99.90;;;;;;7286794;19;20191;-85
2023/09/11 00:20:16;;;;;;;13.52;7.05;;;23.20;99.90;;;;;;7290499;19;20184;-83
2023/09/11 00:22:42;;;;;;;16.00;7.30;;;23.20;99.90;;;;;;7286853;19;20181;-75
2023/09/11 00:25:08;;;;;;;15.77;7.40;;;23.20;99.90;;;;;;7301640;19;20185;-75
2023/09/11 00:27:39;;;;;;;14.93;7.67;;;23.10;99.90;;;;;;7278604;19;20619;-75
2023/09/11 00:30:06;;;;;;;12.73;6.90;;;23.10;99.90;;;;;;7280348;19;20198;-75
2023/09/11 00:32:32;;;;;;;14.60;7.75;;;23.20;99.90;;;;;;7278215;19;20984;-75
2023/09/11 00:34:58;;;;;;;12.32;7.25;;;23.20;99.90;;;;;;7280974;19;20256;-83
2023/09/11 00:37:23;;;;;;;17.43;7.60;;;23.20;99.90;;;;;;7283690;19;20553;-84
2023/09/11 00:39:49;;;;;;;14.47;6.93;;;23.20;99.90;;;;;;7283749;19;20253;-83
2023/09/11 00:42:15;;;;;;;14.63;7.10;;;23.30;99.90;;;;;;7288876;19;20195;-75
2023/09/11 00:44:41;;;;;;;16.33;7.70;;;23.30;99.90;;;;;;7295225;19;20531;-76
2023/09/11 00:47:06;;;;;;;14.57;7.43;;;23.30;99.90;;;;;;7305164;19;20189;-83
2023/09/11 00:49:33;;;;;;;14.83;6.70;;;23.20;99.90;;;;;;7291572;19;20644;-83
2023/09/11 00:51:59;;;;;;;18.47;7.60;;;23.10;99.90;;;;;;7289471;19;20197;-83
2023/09/11 00:54:26;;;;;;;15.48;7.55;;;23.10;99.90;;;;;;7291017;19;20197;-84
2023/09/11 00:56:52;;;;;;;16.05;7.80;;;23.20;99.90;;;;;;7290598;19;20536;-83
2023/09/11 00:59:18;;;;;;;16.37;7.07;;;23.30;99.90;;;;;;7291434;19;20188;-83
2023/09/11 01:01:46;;;;;;;14.67;7.10;;;23.30;99.90;;;;;;7290677;19;20527;-82
2023/09/11 01:04:13;;;;;;;16.42;7.30;;;23.30;99.90;;;;;;7290861;19;20188;-83
2023/09/11 01:06:38;;;;;;;13.90;7.38;;;23.30;99.90;;;;;;7314325;19;20185;-83
2023/09/11 01:09:05;;;;;;;15.38;7.03;;;23.30;99.90;;;;;;7297456;19;20189;-83
2023/09/11 01:11:30;;;;;;;17.50;7.80;;;23.40;99.90;;;;;;7287795;19;20662;-74
2023/09/11 01:13:57;;;;;;;14.23;7.85;;;23.40;99.90;;;;;;7285354;19;20209;-75
2023/09/11 01:16:48;;;;;;;18.17;7.63;;;23.40;99.90;;;;;;7287057;19;20252;-74
2023/09/11 01:19:51;;;;;;;16.73;7.35;;;23.40;99.90;;;;;;7264078;19;20185;-76
2023/09/11 01:23:01;;;;;;;18.80;7.80;;;23.40;99.90;;;;;;7189976;19;2006063;-84
2023/09/11 01:26:03;;;;;;;19.67;7.32;;;23.30;99.90;;;;;;7188491;19;2004424;-74
2023/09/11 01:28:53;;;;;;;14.03;6.70;;;23.30;99.90;;;;;;7183761;19;2006606;-75
2023/09/11 01:31:19;;;;;;;17.27;7.28;;;23.20;99.90;;;;;;7181644;19;2004798;-75
2023/09/11 01:33:45;;;;;;;17.65;7.45;;;23.20;99.90;;;;;;7285400;19;20184;-74
2023/09/11 01:36:11;;;;;;;17.67;7.25;;;23.10;99.90;;;;;;7295386;19;20550;-74
2023/09/11 01:38:36;;;;;;;19.02;7.80;;;23.20;99.90;;;;;;7300522;19;20196;-74
2023/09/11 01:41:05;;;;;;;18.05;7.65;;;23.20;99.90;;;;;;7283565;19;20199;-75
2023/09/11 01:43:35;;;;;;;17.10;7.65;;;23.20;99.90;;;;;;7283968;19;20194;-74
2023/09/11 01:46:02;;;;;;;16.13;7.97;;;23.20;99.90;;;;;;7283727;19;20234;-75
2023/09/11 01:48:31;;;;;;;14.80;7.63;;;23.20;99.90;;;;;;7284239;19;20209;-75
2023/09/11 01:50:58;;;;;;;16.27;7.60;;;23.20;99.90;;;;;;7281680;19;20208;-74
2023/09/11 01:53:24;;;;;;;17.38;7.75;;;23.20;99.90;;;;;;7281410;19;20209;-75
2023/09/11 01:55:51;;;;;;;15.23;7.43;;;23.20;99.90;;;;;;7284104;19;20193;-75
2023/09/11 01:58:16;;;;;;;19.33;8.45;;;23.20;99.90;;;;;;7281960;19;20196;-75
2023/09/11 02:00:42;;;;;;;12.40;7.77;;;23.10;99.90;;;;;;7283804;19;20197;-74
2023/09/11 02:03:09;;;;;;;13.95;7.40;;;23.10;99.90;;;;;;7303121;19;20199;-75
2023/09/11 02:05:35;;;;;;;15.20;7.27;;;23.00;99.90;;;;;;7286842;19;20249;-83
2023/09/11 02:08:00;;;;;;;15.20;6.73;;;22.90;99.90;;;;;;7288120;19;20705;-82
2023/09/11 02:10:26;;;;;;;14.63;7.07;;;22.80;99.90;;;;;;7284353;19;20184;-75
2023/09/11 02:12:52;;;;;;;17.23;7.13;;;22.80;99.90;;;;;;7281791;19;20189;-75
2023/09/11 02:15:18;;;;;;;16.80;7.23;;;22.70;99.90;;;;;;7281926;19;20197;-75
2023/09/11 02:17:43;;;;;;;15.40;6.97;;;22.50;99.90;;;;;;7282682;19;20189;-82
2023/09/11 02:20:09;;;;;;;13.90;7.27;;;22.40;99.90;;;;;;7309770;19;20192;-82
2023/09/11 02:22:35;;;;;;;17.20;6.80;;;22.30;99.90;;;;;;7286504;19;20260;-82
2023/09/11 02:25:01;;;;;;;18.73;7.27;;;22.20;99.90;;;;;;7286036;19;20194;-82
2023/09/11 02:27:27;;;;;;;15.37;7.20;;;22.10;99.90;;;;;;7285506;19;20188;-82
2023/09/11 02:29:53;;;;;;;13.43;7.00;;;22.10;99.90;;;;;;7286329;19;20526;-83
2023/09/11 02:32:18;;;;;;;12.97;6.93;;;22.00;99.90;;;;;;7285134;19;20582;-82
2023/09/11 02:34:45;;;;;;;16.57;7.23;;;22.00;99.90;;;;;;7286232;19;20192;-82
2023/09/11 02:37:10;;;;;;;19.00;7.80;;;21.90;99.90;;;;;;7301562;19;20185;-80
2023/09/11 02:39:38;;;;;;;13.17;7.43;;;21.90;99.90;;;;;;7298029;19;20199;-74
2023/09/11 02:42:04;;;;;;;14.70;7.10;;;21.80;99.90;;;;;;7281177;19;20181;-74
2023/09/11 02:44:30;;;;;;;14.97;7.63;;;21.80;99.90;;;;;;7280745;19;20193;-75
2023/09/11 02:46:55;;;;;;;14.10;7.50;;;21.80;99.90;;;;;;7281640;19;20257;-76
2023/09/11 02:49:21;;;;;;;18.53;7.90;;;21.80;99.90;;;;;;7285400;19;20188;-82
2023/09/11 02:51:47;;;;;;;15.00;7.33;;;21.80;99.90;;;;;;7287006;19;20193;-83
2023/09/11 02:54:13;;;;;;;14.07;7.20;;;21.80;99.90;;;;;;7285867;19;20281;-83
2023/09/11 02:56:39;;;;;;;21.93;8.03;;;21.80;99.90;;;;;;7308604;19;20210;-83
2023/09/11 02:59:05;;;;;;;16.47;7.33;;;21.90;99.90;;;;;;7290017;19;20189;-83
2023/09/11 03:01:32;;;;;;;14.97;8.40;;;22.00;99.90;;;;;;7286492;19;20649;-83
2023/09/11 03:03:58;;;;;;;13.10;7.77;;;22.10;99.90;;;;;;7283554;19;20205;-83
2023/09/11 03:06:24;;;;;;;16.87;7.60;;;22.10;99.90;;;;;;7285705;19;20184;-83
2023/09/11 03:08:50;;;;;;;18.80;7.50;;;22.10;99.90;;;;;;7284013;19;20252;-75
2023/09/11 03:11:16;;;;;;;17.63;8.60;;;22.10;99.90;;;;;;7279257;19;20286;-75
2023/09/11 03:13:42;;;;;;;13.97;7.80;;;22.10;99.90;;;;;;7287451;19;20205;-82
2023/09/11 03:16:13;;;;;;;15.33;7.17;;;22.20;99.90;;;;;;7307326;19;20184;-74
2023/09/11 03:18:43;;;;;;;16.50;7.90;;;22.30;99.90;;;;;;7260007;19;20188;-74
2023/09/11 03:21:09;;;;;;;13.67;7.27;;;22.30;99.90;;;;;;7301510;19;20276;-75
2023/09/11 03:23:36;;;;;;;13.50;7.67;;;22.30;99.90;;;;;;7279364;19;20206;-75
2023/09/11 03:26:02;;;;;;;17.33;8.00;;;22.30;99.90;;;;;;7280505;19;20202;-74
2023/09/11 03:28:30;;;;;;;14.90;7.63;;;22.20;99.90;;;;;;7280461;19;20499;-75
2023/09/11 03:30:57;;;;;;;14.10;7.80;;;22.20;99.90;;;;;;7280133;19;20218;-74
2023/09/11 03:33:23;;;;;;;17.70;7.73;;;22.20;99.90;;;;;;7279452;19;20284;-75
2023/09/11 03:35:49;;;;;;;16.90;8.30;;;22.20;99.90;;;;;;7280998;19;20196;-76
2023/09/11 03:38:15;;;;;;;14.47;8.00;;;22.20;99.90;;;;;;7280280;19;20231;-76
2023/09/11 03:40:45;;;;;;;18.87;8.13;;;22.10;99.90;;;;;;7289725;19;20539;-75
2023/09/11 03:43:12;;;;;;;17.67;8.40;;;22.10;99.90;;;;;;7285259;19;20798;-76
2023/09/11 03:45:37;;;;;;;17.23;8.10;;;22.20;99.90;;;;;;7302130;19;20273;-75
2023/09/11 03:48:04;;;;;;;15.20;8.47;;;22.20;99.90;;;;;;7281533;19;20205;-83
2023/09/11 03:50:30;;;;;;;18.23;8.53;;;22.20;99.90;;;;;;7283963;19;20170;-82
2023/09/11 03:52:56;;;;;;;13.70;7.50;;;22.10;99.90;;;;;;7284260;19;20222;-82
2023/09/11 03:55:22;;;;;;;15.07;8.03;;;22.10;99.90;;;;;;7285102;19;20193;-82
2023/09/11 03:57:48;;;;;;;16.17;8.40;;;22.10;99.90;;;;;;7285335;19;20191;-82
2023/09/11 04:00:14;;;;;;;14.47;8.03;;;22.20;99.90;;;;;;7283393;19;20669;-82
2023/09/11 04:02:40;;;;;;;14.77;8.17;;;22.20;99.90;;;;;;7303168;19;20286;-81
2023/09/11 04:05:06;;;;;;;17.03;7.93;;;22.10;99.90;;;;;;7297000;19;20204;-83
2023/09/11 04:07:32;;;;;;;15.97;9.13;;;22.00;99.90;;;;;;7279801;19;20199;-74
2023/09/11 04:09:59;;;;;;;15.23;8.43;;;22.00;99.90;;;;;;7277938;19;20213;-75
2023/09/11 04:12:25;;;;;;;14.50;8.23;;;22.00;99.90;;;;;;7278511;19;20197;-75
2023/09/11 04:14:51;;;;;;;16.93;8.80;;;22.00;99.90;;;;;;7278214;19;20203;-75
2023/09/11 04:17:17;;;;;;;16.03;8.10;;;21.90;99.90;;;;;;7285370;19;20193;-75
2023/09/11 04:19:44;;;;;;;17.27;8.67;;;21.90;99.90;;;;;;7284952;19;20297;-75
2023/09/11 04:22:11;;;;;;;16.40;8.60;;;21.80;99.90;;;;;;7300669;19;20221;-75
2023/09/11 04:24:38;;;;;;;17.63;8.77;;;21.80;99.90;;;;;;7305987;19;20193;-75
2023/09/11 04:27:04;;;;;;;17.90;9.10;;;21.80;99.90;;;;;;7285172;19;20199;-75
2023/09/11 04:29:31;;;;;;;17.00;9.37;;;21.80;99.90;;;;;;7284259;19;20193;-75
2023/09/11 04:31:57;;;;;;;19.90;9.80;;;21.70;99.90;;;;;;7284524;19;20197;-75
2023/09/11 04:34:24;;;;;;;17.77;10.07;;;21.70;99.90;;;;;;7288071;19;20256;-82
2023/09/11 04:36:51;;;;;;;18.33;9.20;;;21.80;99.90;;;;;;7290805;19;20799;-82
2023/09/11 04:39:18;;;;;;;17.20;9.53;;;21.80;99.90;;;;;;7289766;19;20754;-82
2023/09/11 04:41:44;;;;;;;16.97;9.73;;;21.80;99.90;;;;;;7289217;19;20713;-81
2023/09/11 04:44:10;;;;;;;16.80;9.77;;;21.80;99.90;;;;;;7311856;19;20651;-83
2023/09/11 04:46:39;;;;;;;23.90;10.10;;;21.70;99.90;;;;;;7289217;19;20184;-84
2023/09/11 04:49:05;;;;;;;19.37;10.00;;;21.70;99.90;;;;;;7288724;19;20543;-85
2023/09/11 04:51:32;;;;;;;23.90;12.20;;;21.70;99.90;;;;;;7291039;19;20202;-84
2023/09/11 04:53:58;;;;;;;23.77;12.27;;;21.70;99.90;;;;;;7289000;19;20189;-84
2023/09/11 04:56:23;;;;;;;20.47;10.77;;;21.70;99.90;;;;;;7288906;19;20192;-84
2023/09/11 04:58:50;;;;;;;18.80;10.83;;;21.70;99.90;;;;;;7288332;19;20667;-82
2023/09/11 05:01:16;;;;;;;18.37;10.27;;;21.70;99.90;;;;;;7288615;19;20209;-84
2023/09/11 05:03:45;;;;;;;21.97;10.87;;;21.80;99.90;;;;;;7287892;19;20656;-83
2023/09/11 05:06:10;;;;;;;24.30;11.47;;;21.70;99.90;;;;;;7307634;19;20220;-79
2023/09/11 05:08:36;;;;;;;19.77;12.07;;;21.70;99.90;;;;;;7295534;19;20952;-83
2023/09/11 05:11:02;;;;;;;23.07;11.17;;;21.70;99.90;;;;;;7285502;19;20188;-84
2023/09/11 05:13:29;;;;;;;21.30;11.30;;;21.80;99.90;;;;;;7285873;19;20200;-84
2023/09/11 05:15:55;;;;;;;21.40;11.33;;;21.80;99.90;;;;;;7288220;19;20234;-84
2023/09/11 05:18:21;;;;;;;20.90;11.20;;;21.80;99.90;;;;;;7288015;19;20252;-85
2023/09/11 05:20:50;;;;;;;20.63;12.03;;;21.90;99.90;;;;;;7286875;19;20184;-85
2023/09/11 05:23:17;;;;;;;24.20;11.77;;;22.00;99.90;;;;;;7288933;19;20189;-85
2023/09/11 05:25:44;;;;;;;23.80;11.63;;;22.00;99.90;;;;;;7288139;19;20191;-85
2023/09/11 05:28:10;;;;;;;21.17;12.20;;;22.10;99.90;;;;;;7310498;19;20211;-85
2023/09/11 05:30:36;;;;;;;20.43;11.17;;;22.10;99.90;;;;;;7290629;19;20188;-84
2023/09/11 05:33:02;;;;;;;20.30;11.80;;;22.10;99.90;;;;;;7288149;19;20178;-84
2023/09/11 05:35:28;;;;;;;20.00;12.30;;;22.10;99.90;;;;;;7288987;19;20252;-82
2023/09/11 05:37:54;;;;;;;23.13;12.50;;;22.10;99.90;;;;;;7288019;19;20211;-84
2023/09/11 05:40:20;;;;;;;19.60;12.93;;;22.20;99.90;;;;;;7288389;19;20293;-84
2023/09/11 05:42:45;;;;;;;19.50;12.77;;;22.30;99.90;;;;;;7289644;19;20270;-84
2023/09/11 05:45:11;;;;;;;22.97;12.63;;;22.50;99.90;;;;;;7302201;19;20654;-83
2023/09/11 05:47:38;;;;;;;19.83;12.83;;;22.90;99.90;;;;;;7302458;19;20221;-81
2023/09/11 05:50:05;;;;;;;21.93;12.83;;;23.20;99.90;;;;;;7287411;19;20193;-82
2023/09/11 05:52:31;;;;;;;18.63;11.97;;;23.30;99.90;;;;;;7288549;19;20217;-81
2023/09/11 05:54:56;;;;;;;24.63;14.00;;;23.30;99.90;;;;;;7288398;19;20210;-82
2023/09/11 05:57:22;;;;;;;24.53;14.60;;;23.20;99.90;;;;;;7286709;19;20549;-81
2023/09/11 05:59:48;;;;;;;22.07;12.27;;;23.10;99.90;;;;;;7286755;19;20563;-80
2023/09/11 06:02:13;;;;;;;20.80;12.38;;;23.20;99.90;;;;;;7286677;19;20209;-80
2023/09/11 06:04:39;;;;;;;23.83;12.55;;;23.60;99.90;;;;;;7308830;19;20670;-81
2023/09/11 06:07:05;;;;;;;19.40;11.68;;;24.40;99.90;;;;;;7286686;19;20193;-82
2023/09/11 06:09:31;;;;;;;22.02;10.88;;;25.00;99.90;;;;;;7288617;19;20603;-82
2023/09/11 06:11:57;;;;;;;18.50;11.43;;;25.20;99.90;;;;;;7286803;19;20196;-81
2023/09/11 06:14:23;;;;;;;18.80;11.50;;;25.20;99.90;;;;;;7285418;19;20267;-80
2023/09/11 06:16:49;;;;;;;22.17;13.02;;;25.20;99.90;;;;;;7286879;19;20196;-81
2023/09/11 06:19:14;;;;;;;24.33;12.43;;;25.10;99.90;;;;;;7287527;19;20199;-81
2023/09/11 06:21:44;;;;;;;19.60;11.73;;;25.00;99.90;;;;;;7307960;19;20188;-81
2023/09/11 06:24:10;;;;;;;21.45;13.40;;;24.80;99.90;;;;;;7286656;19;20756;-81
2023/09/11 06:26:36;;;;;;;19.10;12.77;;;24.70;99.90;;;;;;7287403;19;20185;-81
2023/09/11 06:29:02;;;;;;;22.17;13.10;;;24.80;99.90;;;;;;7286470;19;20185;-83
2023/09/11 06:31:29;;;;;;;22.17;13.02;;;24.80;99.90;;;;;;7286817;19;20189;-81
2023/09/11 06:33:55;;;;;;;25.35;13.05;;;24.90;99.90;;;;;;7287183;19;20192;-80
2023/09/11 06:36:21;;;;;;;26.58;12.82;;;24.60;99.90;;;;;;7286497;19;20211;-80
2023/09/11 06:38:46;;;;;;;23.23;12.75;;;24.60;99.90;;;;;;7282786;19;20191;-81
2023/09/11 06:41:12;;;;;;;22.15;13.13;;;24.60;99.90;;;;;;7290900;19;20276;-80
2023/09/11 06:43:38;;;;;;;23.75;12.73;;;25.00;99.90;;;;;;7307516;19;20189;-80
2023/09/11 06:46:04;;;;;;;23.02;13.27;;;25.20;99.90;;;;;;7287784;19;20185;-81
2023/09/11 06:48:30;;;;;;;19.88;11.93;;;25.20;99.90;;;;;;7285305;19;20219;-81
2023/09/11 06:50:56;;;;;;;20.75;11.80;;;25.50;99.90;;;;;;7286936;19;20200;-80
2023/09/11 06:53:21;;;;;;;24.83;11.70;;;25.70;99.90;;;;;;7287233;19;20197;-81
2023/09/11 06:55:48;;;;;;;22.73;12.32;;;26.00;99.90;;;;;;7287166;19;20621;-80
2023/09/11 06:58:14;;;;;;;24.58;12.02;;;26.00;99.90;;;;;;7284768;19;20185;-80
2023/09/11 07:00:40;;;;;;;26.10;11.85;;;26.00;99.90;;;;;;7309821;19;20204;-80
2023/09/11 07:03:06;;;;;;;21.08;11.85;;;26.00;99.90;;;;;;7286519;19;20192;-80
2023/09/11 07:05:34;;;;;;;22.27;11.30;;;26.00;99.90;;;;;;7286177;19;20193;-82
2023/09/11 07:08:00;;;;;;;22.08;11.10;;;26.50;99.90;;;;;;7284605;19;20205;-81
2023/09/11 07:10:26;;;;;;;22.23;10.73;;;28.60;99.90;;;;;;7283867;19;20563;-81
2023/09/11 07:12:52;;;;;;;21.25;10.45;;;30.40;99.90;;;;;;7283427;19;20193;-77
2023/09/11 07:15:17;;;;;;;21.42;10.15;;;31.40;99.90;;;;;;7282038;19;20205;-77
2023/09/11 07:17:44;;;;;;;23.90;11.02;;;32.70;99.90;;;;;;7283014;19;20199;-77
2023/09/11 07:20:12;;;;;;;21.65;10.50;;;33.90;99.90;;;;;;7306511;19;20196;-82
2023/09/11 07:22:38;;;;;;;19.85;9.73;;;34.80;99.90;;;;;;7284853;19;20209;-81
2023/09/11 07:25:11;;;;;;;20.92;10.30;;;35.90;99.90;;;;;;7284987;19;20212;-81
2023/09/11 07:27:37;;;;;;;15.35;10.63;;;36.50;99.90;;;;;;7285058;19;21169;-81
2023/09/11 07:30:06;;;;;;;21.60;10.52;;;36.60;99.90;;;;;;7286501;19;20192;-81
2023/09/11 07:32:32;;;;;;;19.35;9.77;;;36.60;99.90;;;;;;7283568;19;20217;-77
2023/09/11 07:34:58;;;;;;;19.10;9.77;;;37.50;99.90;;;;;;7285016;19;20233;-77
2023/09/11 07:37:24;;;;;;;20.00;10.48;;;38.10;97.70;;;;;;7282829;19;20316;-77
2023/09/11 07:39:50;;;;;;;18.70;10.15;;;37.90;96.30;;;;;;7285198;19;20192;-81
2023/09/11 07:42:16;;;;;;;19.67;10.07;;;38.30;94.80;;;;;;7284879;19;20191;-82
2023/09/11 07:44:44;;;;;;;14.43;9.57;;;38.60;93.60;;;;;;7297316;19;20193;-81
2023/09/11 07:47:10;;;;;;;16.83;9.90;;;39.10;92.40;;;;;;7307244;19;20502;-83
2023/09/11 07:49:36;;;;;;;17.42;9.55;;;39.40;91.10;;;;;;7284739;19;20188;-82
2023/09/11 07:52:01;;;;;;;19.27;9.10;;;39.90;90.20;;;;;;7282577;19;20790;-82
2023/09/11 07:54:27;;;;;;;15.63;9.30;;;40.30;88.50;;;;;;7284550;19;20208;-82
2023/09/11 07:56:53;;;;;;;21.15;8.70;;;40.40;85.90;;;;;;7283228;19;20193;-82
2023/09/11 07:59:19;;;;;;;15.75;8.38;;;40.80;84.90;;;;;;7283597;19;20604;-81
2023/09/11 08:01:45;;;;;;;13.55;8.45;;;40.90;80.90;;;;;;7284740;19;20726;-82
2023/09/11 08:04:10;;;;;;;14.98;8.00;;;41.10;79.60;;;;;;7305002;19;20191;-83
2023/09/11 08:06:36;;;;;;;15.80;7.68;;;40.80;78.40;;;;;;7285632;19;20189;-82
2023/09/11 08:09:03;;;;;;;15.88;7.57;;;40.80;77.20;;;;;;7285246;19;20300;-82
2023/09/11 08:11:31;;;;;;;17.70;7.35;;;40.90;77.40;;;;;;7283448;19;20192;-82
2023/09/11 08:13:56;;;;;;;14.10;5.93;;;40.90;75.20;;;;;;7283966;19;20569;-82
2023/09/11 08:16:22;;;;;;;16.02;6.85;;;40.20;76.00;;;;;;7284003;19;20266;-81
2023/09/11 08:18:48;;;;;;;14.98;6.70;;;39.60;76.50;;;;;;7282689;19;20196;-82
2023/09/11 08:21:14;;;;;;;13.23;6.50;;;39.90;77.20;;;;;;7288996;19;20726;-82
2023/09/11 08:23:44;;;;;;;11.80;5.65;;;40.80;75.80;;;;;;7310462;19;20181;-82
2023/09/11 08:26:10;;;;;;;11.63;5.90;;;41.10;74.60;;;;;;7288365;19;20195;-79
2023/09/11 08:28:37;;;;;;;12.27;5.65;;;40.60;71.80;;;;;;7284329;19;20181;-78
2023/09/11 08:31:03;;;;;;;11.98;5.72;;;40.10;73.10;;;;;;7283499;19;20196;-77
2023/09/11 08:33:29;;;;;;;10.52;5.20;;;40.40;73.30;;;;;;7281997;19;20565;-78
2023/09/11 08:35:55;;;;;;;11.68;5.40;;;39.50;71.40;;;;;;7284016;19;20205;-77
2023/09/11 08:38:21;;;;;;;12.20;5.03;;;38.20;75.00;;;;;;7281417;19;20196;-78
2023/09/11 08:40:47;;;;;;;13.82;5.82;;;38.30;77.20;;;;;;7280637;19;20196;-78
2023/09/11 08:43:13;;;;;;;10.68;5.00;;;39.20;76.70;;;;;;7283170;19;20185;-77
2023/09/11 08:45:39;;;;;;;9.75;4.47;;;40.50;73.80;;;;;;7303441;19;20189;-78
2023/09/11 08:48:10;;;;;;;9.18;4.60;;;40.70;72.20;;;;;;7282207;19;20189;-79
2023/09/11 08:50:44;;;;;;;11.57;4.88;;;41.20;69.60;;;;;;7282819;19;20693;-78
2023/09/11 08:53:15;;;;;;;9.85;4.57;;;38.40;72.20;;;;;;7281559;19;20823;-77
2023/09/11 08:55:42;;;;;;;9.77;3.90;;;37.80;75.40;;;;;;7282145;19;20193;-78
2023/09/11 08:58:11;;;;;;;9.00;4.28;;;39.10;74.90;;;;;;7281399;19;21036;-78
2023/09/11 09:00:37;;;;;;;9.95;4.50;;;39.80;73.20;;;;;;7282365;19;20213;-83
2023/09/11 09:03:04;;;;;;;9.30;4.65;;;39.60;72.00;;;;;;7288310;19;20201;-83
2023/09/11 09:05:32;;;;;;;9.65;4.97;;;40.50;72.10;;;;;;7290196;19;20252;-83
2023/09/11 09:07:59;;;;;;;8.98;4.35;;;39.50;72.80;;;;;;7291306;19;20223;-78
2023/09/11 09:10:25;;;;;;;10.30;4.55;;;40.60;72.10;;;;;;7286442;19;20197;-79
2023/09/11 09:12:52;;;;;;;11.52;4.57;;;41.20;69.20;;;;;;7289973;19;20752;-78
2023/09/11 09:15:21;;;;;;;9.82;4.47;;;39.90;71.30;;;;;;7287780;19;20197;-78
2023/09/11 09:17:48;;;;;;;9.13;4.72;;;39.60;72.10;;;;;;7286872;19;20189;-78
2023/09/11 09:20:14;;;;;;;15.02;5.80;;;38.60;73.10;;;;;;7286209;19;20299;-78
2023/09/11 09:22:57;;;;;;;11.75;5.57;;;36.90;75.40;;;;;;7309380;19;20675;-78
2023/09/11 09:25:24;;;;;;;10.43;4.97;;;35.50;79.60;;;;;;7185318;19;2006141;-78
2023/09/11 09:27:50;;;;;;;10.88;5.07;;;34.80;80.70;;;;;;7287463;19;20248;-78
2023/09/11 09:30:27;;;;;;;11.82;5.55;;;34.20;82.50;;;;;;7286803;19;20193;-78
2023/09/11 09:32:53;;;;;;;14.32;5.90;;;33.50;86.80;;;;;;7287905;19;20204;-78
2023/09/11 09:35:30;;;;;;;15.63;5.82;;;33.10;90.10;;;;;;7288446;19;20213;-82
2023/09/11 09:37:57;;;;;;;10.00;5.25;;;32.30;90.30;;;;;;7289168;19;20792;-77
2023/09/11 09:40:32;;;;;;;16.13;6.05;;;31.90;92.20;;;;;;7286006;19;20180;-78
2023/09/11 09:42:59;;;;;;;10.82;4.75;;;31.80;92.70;;;;;;7287124;19;20188;-78
2023/09/11 09:45:43;;;;;;;12.60;5.85;;;31.60;93.20;;;;;;7289142;19;20188;-78
2023/09/11 09:48:16;;;;;;;12.30;5.25;;;31.90;95.40;;;;;;7286428;19;20263;-78
2023/09/11 09:50:51;;;;;;;10.90;5.00;;;33.90;92.20;;;;;;7275753;19;20185;-78
2023/09/11 09:53:31;;;;;;;15.88;4.90;;;35.60;90.00;;;;;;7288552;19;20302;-82
2023/09/11 09:56:10;;;;;;;8.60;4.57;;;37.40;84.60;;;;;;7287728;19;20197;-83
2023/09/11 09:58:46;;;;;;;12.38;4.70;;;38.90;79.70;;;;;;7286822;19;20195;-78
2023/09/11 10:01:14;;;;;;;15.00;4.90;;;40.10;75.90;;;;;;7283100;19;20217;-78
2023/09/11 10:03:48;;;;;;;12.45;4.25;;;40.70;73.20;;;;;;7306570;19;20549;-78
2023/09/11 10:06:28;;;;;;;8.93;3.40;;;40.10;71.10;;;;;;7265513;19;20663;-78
2023/09/11 10:09:13;;;;;;;11.45;3.97;;;40.90;72.00;;;;;;7285765;19;20192;-78
2023/09/11 10:11:41;;;;;;;13.43;4.50;;;42.10;69.70;;;;;;7288819;19;20195;-84
2023/09/11 10:14:09;;;;;;;9.48;4.20;;;41.90;67.20;;;;;;7285897;19;20201;-78
2023/09/11 10:16:35;;;;;;;10.48;4.55;;;42.40;68.90;;;;;;7285974;19;20212;-78
2023/09/11 10:19:02;;;;;;;11.07;4.15;;;41.90;65.30;;;;;;7288088;19;21078;-83
2023/09/11 10:21:29;;;;;;;8.10;3.92;;;41.40;68.40;;;;;;7287572;19;20197;-83
2023/09/11 10:23:55;;;;;;;10.43;4.15;;;41.50;68.70;;;;;;7288591;19;20205;-83
2023/09/11 10:26:42;;;;;;;11.07;4.00;;;42.30;66.50;;;;;;7288940;19;20177;-84
2023/09/11 10:29:11;;;;;;;13.02;4.07;;;41.80;66.80;;;;;;7287118;19;20201;-84
2023/09/11 10:31:44;;;;;;;15.00;4.10;;;41.90;67.90;;;;;;7289667;19;20180;-84
2023/09/11 10:34:11;;;;;;;8.20;3.65;;;42.60;66.50;;;;;;7286063;19;20188;-83
2023/09/11 10:36:40;;;;;;;13.23;4.00;;;42.80;65.20;;;;;;7289166;19;20188;-83
2023/09/11 10:39:09;;;;;;;7.43;3.10;;;41.90;63.20;;;;;;7283889;19;20185;-78
2023/09/11 10:41:36;;;;;;;8.98;3.55;;;42.10;63.60;;;;;;7285349;19;20201;-78
2023/09/11 10:44:02;;;;;;;10.98;3.63;;;41.10;62.80;;;;;;7287694;19;20186;-79
2023/09/11 10:46:33;;;;;;;7.32;3.47;;;41.20;65.20;;;;;;7289392;19;20664;-78
2023/09/11 10:49:00;;;;;;;9.07;3.42;;;41.60;67.40;;;;;;7285945;19;20197;-78
2023/09/11 10:51:28;;;;;;;9.18;3.38;;;41.70;63.40;;;;;;7287029;19;20635;-84
2023/09/11 10:53:55;;;;;;;10.07;4.00;;;42.10;63.40;;;;;;7289836;19;20219;-84
2023/09/11 10:56:21;;;;;;;8.73;3.47;;;42.30;62.70;;;;;;7286173;19;20952;-84
2023/09/11 10:58:52;;;;;;;9.13;3.85;;;41.80;63.10;;;;;;7284490;19;20990;-83
2023/09/11 11:01:18;;;;;;;8.05;3.33;;;40.60;64.20;;;;;;7286939;19;20188;-83
2023/09/11 11:03:45;;;;;;;8.70;3.35;;;41.30;65.40;;;;;;7284537;19;20203;-83
2023/09/11 11:06:16;;;;;;;8.32;3.70;;;41.70;64.80;;;;;;7306945;19;20180;-85
2023/09/11 11:08:42;;;;;;;9.15;3.28;;;41.80;65.90;;;;;;7276532;19;20217;-78
2023/09/11 11:11:27;;;;;;;6.07;2.90;;;42.40;63.10;;;;;;7303386;19;20197;-78
2023/09/11 11:14:17;;;;;;;8.85;3.22;;;41.90;62.00;;;;;;7178533;19;2005137;-78
2023/09/11 11:17:04;;;;;;;6.95;3.50;;;41.50;62.10;;;;;;7264009;19;20280;-78
2023/09/11 11:19:37;;;;;;;7.47;3.10;;;41.60;64.60;;;;;;7283201;19;20690;-78
2023/09/11 11:22:27;;;;;;;7.35;3.33;;;42.50;64.10;;;;;;7283772;19;20188;-78
2023/09/11 11:24:57;;;;;;;8.18;3.28;;;42.20;62.40;;;;;;7180101;19;2004470;-77
2023/09/11 11:27:23;;;;;;;8.63;3.55;;;42.30;63.70;;;;;;7281603;19;20449;-78
2023/09/11 11:29:49;;;;;;;8.50;3.45;;;41.60;62.30;;;;;;7282305;19;20659;-83
2023/09/11 11:32:18;;;;;;;8.88;3.33;;;41.20;62.90;;;;;;7281750;19;20230;-78
2023/09/11 11:34:45;;;;;;;9.63;3.30;;;41.50;62.90;;;;;;7283277;19;20258;-82
2023/09/11 11:37:11;;;;;;;10.30;4.10;;;40.50;64.70;;;;;;7304813;19;20210;-83
2023/09/11 11:39:37;;;;;;;8.30;3.10;;;40.50;65.00;;;;;;7282514;19;20566;-83
2023/09/11 11:42:04;;;;;;;7.40;3.60;;;40.40;64.20;;;;;;7285175;19;20214;-84
2023/09/11 11:44:33;;;;;;;6.57;2.90;;;41.00;63.60;;;;;;7286488;19;20193;-83
2023/09/11 11:47:00;;;;;;;7.57;3.13;;;41.20;65.20;;;;;;7284266;19;20197;-83
2023/09/11 11:49:25;;;;;;;6.68;2.95;;;40.60;64.70;;;;;;7286577;19;20214;-84
2023/09/11 11:51:51;;;;;;;10.13;3.40;;;40.90;65.50;;;;;;7286090;19;20193;-83
2023/09/11 11:54:27;;;;;;;6.53;3.30;;;41.50;63.30;;;;;;7283675;19;20687;-78
2023/09/11 11:56:57;;;;;;;7.20;3.03;;;41.80;63.50;;;;;;7283008;19;20196;-78
2023/09/11 11:59:31;;;;;;;6.07;2.92;;;42.00;61.60;;;;;;7282740;19;20184;-78
2023/09/11 12:02:03;;;;;;;7.57;3.35;;;41.90;63.00;;;;;;7284321;19;20189;-83
2023/09/11 12:04:29;;;;;;;8.63;3.15;;;41.90;62.50;;;;;;7284793;19;20631;-83
2023/09/11 12:06:57;;;;;;;7.70;3.05;;;42.00;61.30;;;;;;7284323;19;20181;-78
2023/09/11 12:09:23;;;;;;;5.78;2.75;;;41.80;62.10;;;;;;7283262;19;20192;-78
2023/09/11 12:11:50;;;;;;;7.30;3.20;;;41.60;62.40;;;;;;7281290;19;20256;-78
2023/09/11 12:14:17;;;;;;;6.30;3.20;;;41.30;61.60;;;;;;7283657;19;20211;-83
2023/09/11 12:16:43;;;;;;;8.68;2.97;;;40.90;64.00;;;;;;7291776;19;20184;-83
2023/09/11 12:19:09;;;;;;;7.60;3.40;;;39.80;64.70;;;;;;7305236;19;20191;-84
2023/09/11 12:21:35;;;;;;;8.00;2.95;;;39.60;64.20;;;;;;7282922;19;20193;-78
2023/09/11 12:24:01;;;;;;;8.93;3.13;;;39.80;64.20;;;;;;7282701;19;20184;-78
2023/09/11 12:26:29;;;;;;;9.35;3.25;;;39.60;66.00;;;;;;7282740;19;20196;-78
2023/09/11 12:28:56;;;;;;;10.65;3.20;;;39.60;67.40;;;;;;7283718;19;20188;-78
2023/09/11 12:31:22;;;;;;;8.10;3.22;;;39.00;67.10;;;;;;7282488;19;20235;-78
2023/09/11 12:33:52;;;;;;;6.90;3.05;;;38.70;67.10;;;;;;7284590;19;20192;-83
2023/09/11 12:36:22;;;;;;;7.80;3.20;;;38.30;67.40;;;;;;7284518;19;20189;-83
2023/09/11 12:38:49;;;;;;;8.02;3.17;;;38.00;70.30;;;;;;7291305;19;20213;-78